createdAt,value
2018-04-20T00:00:04.948Z,1023.77
2018-04-20T00:01:04.919Z,1023.73
2018-04-20T00:02:04.895Z,1023.76
2018-04-20T00:03:04.877Z,1023.76
2018-04-20T00:04:04.850Z,1023.73
2018-04-20T00:05:04.827Z,1023.75
2018-04-20T00:06:04.803Z,1023.71
2018-04-20T00:07:04.775Z,1023.70
2018-04-20T00:08:04.759Z,1023.66
2018-04-20T00:09:04.735Z,1023.70
2018-04-20T00:10:04.711Z,1023.70
2018-04-20T00:11:04.682Z,1023.70
2018-04-20T00:12:04.674Z,1023.66
2018-04-20T00:13:04.666Z,1023.67
2018-04-20T00:14:04.619Z,1023.66
2018-04-20T00:15:04.596Z,1023.67
2018-04-20T00:16:04.574Z,1023.66
2018-04-20T00:17:04.554Z,1023.65
2018-04-20T00:18:04.526Z,1023.63
2018-04-20T00:19:04.504Z,1023.63
2018-04-20T00:20:04.481Z,1023.62
2018-04-20T00:21:04.457Z,1023.60
2018-04-20T00:22:04.434Z,1023.59
2018-04-20T00:23:04.411Z,1023.55
2018-04-20T00:24:04.399Z,1023.57
2018-04-20T00:25:04.365Z,1023.58
2018-04-20T00:26:04.341Z,1023.58
2018-04-20T00:27:04.324Z,1023.59
2018-04-20T00:28:04.299Z,1023.58
2018-04-20T00:29:04.272Z,1023.62
2018-04-20T00:30:04.249Z,1023.58
2018-04-20T00:31:04.231Z,1023.59
2018-04-20T00:32:04.204Z,1023.54
2018-04-20T00:33:04.182Z,1023.54
2018-04-20T00:34:04.156Z,1023.54
2018-04-20T00:35:04.137Z,1023.53
2018-04-20T00:36:04.111Z,1023.51
2018-04-20T00:37:04.088Z,1023.48
2018-04-20T00:38:04.071Z,1023.51
2018-04-20T00:39:04.056Z,1023.43
2018-04-20T00:40:04.019Z,1023.44
2018-04-20T00:41:03.999Z,1023.42
2018-04-20T00:42:03.988Z,1023.45
2018-04-20T00:43:03.948Z,1023.40
2018-04-20T00:44:03.926Z,1023.38
2018-04-20T00:45:03.901Z,1023.41
2018-04-20T00:46:03.878Z,1023.42
2018-04-20T00:47:03.854Z,1023.38
2018-04-20T00:48:03.832Z,1023.36
2018-04-20T00:49:03.809Z,1023.38
2018-04-20T00:50:04.586Z,1023.36
2018-04-20T00:51:03.767Z,1023.35
2018-04-20T00:52:03.739Z,1023.35
2018-04-20T00:53:03.716Z,1023.32
2018-04-20T00:54:03.692Z,1023.32
2018-04-20T00:55:03.673Z,1023.26
2018-04-20T00:56:03.646Z,1023.30
2018-04-20T00:57:03.624Z,1023.30
2018-04-20T00:58:03.608Z,1023.29
2018-04-20T00:59:03.576Z,1023.30
2018-04-20T01:00:03.553Z,1023.29
2018-04-20T01:01:03.529Z,1023.27
2018-04-20T01:02:03.505Z,1023.26
2018-04-20T01:03:03.487Z,1023.26
2018-04-20T01:04:03.473Z,1023.26
2018-04-20T01:05:03.436Z,1023.23
2018-04-20T01:06:03.412Z,1023.22
2018-04-20T01:07:03.389Z,1023.22
2018-04-20T01:08:03.366Z,1023.21
2018-04-20T01:09:03.343Z,1023.26
2018-04-20T01:10:03.318Z,1023.21
2018-04-20T01:11:03.294Z,1023.18
2018-04-20T01:12:03.275Z,1023.19
2018-04-20T01:13:03.248Z,1023.16
2018-04-20T01:14:03.224Z,1023.16
2018-04-20T01:15:03.205Z,1023.12
2018-04-20T01:16:03.186Z,1023.12
2018-04-20T01:17:03.154Z,1023.05
2018-04-20T01:18:03.131Z,1023.08
2018-04-20T01:19:03.112Z,1023.10
2018-04-20T01:20:03.091Z,1023.11
2018-04-20T01:21:03.061Z,1023.05
2018-04-20T01:22:03.036Z,1023.07
2018-04-20T01:23:03.015Z,1023.07
2018-04-20T01:24:02.990Z,1023.11
2018-04-20T01:25:02.972Z,1023.11
2018-04-20T01:26:02.946Z,1023.10
2018-04-20T01:27:02.923Z,1023.09
2018-04-20T01:28:02.895Z,1023.10
2018-04-20T01:29:02.871Z,1023.11
2018-04-20T01:30:02.847Z,1023.10
2018-04-20T01:31:02.823Z,1023.03
2018-04-20T01:32:02.800Z,1023.02
2018-04-20T01:33:02.777Z,1022.99
2018-04-20T01:34:02.752Z,1023.05
2018-04-20T01:35:02.731Z,1022.99
2018-04-20T01:36:02.713Z,1023.00
2018-04-20T01:37:02.682Z,1022.98
2018-04-20T01:38:02.658Z,1022.97
2018-04-20T01:39:02.635Z,1022.94
2018-04-20T01:40:02.616Z,1022.98
2018-04-20T01:41:02.590Z,1022.98
2018-04-20T01:42:02.562Z,1022.96
2018-04-20T01:43:02.589Z,1022.98
2018-04-20T01:44:02.518Z,1022.96
2018-04-20T01:45:02.492Z,1022.95
2018-04-20T01:46:02.480Z,1022.90
2018-04-20T01:47:02.445Z,1022.93
2018-04-20T01:48:02.421Z,1022.94
2018-04-20T01:49:02.396Z,1022.92
2018-04-20T01:50:02.371Z,1022.98
2018-04-20T01:51:02.347Z,1022.91
2018-04-20T01:52:02.326Z,1022.92
2018-04-20T01:53:02.300Z,1022.89
2018-04-20T01:54:02.277Z,1022.91
2018-04-20T01:55:02.254Z,1022.85
2018-04-20T01:56:02.230Z,1022.87
2018-04-20T01:57:02.204Z,1022.86
2018-04-20T01:58:02.200Z,1022.87
2018-04-20T01:59:02.156Z,1022.83
2018-04-20T02:00:02.133Z,1022.85
2018-04-20T02:01:02.109Z,1022.81
2018-04-20T02:02:02.097Z,1022.85
2018-04-20T02:03:02.061Z,1022.80
2018-04-20T02:04:02.037Z,1022.82
2018-04-20T02:05:02.013Z,1022.83
2018-04-20T02:06:01.991Z,1022.81
2018-04-20T02:07:01.967Z,1022.77
2018-04-20T02:08:01.942Z,1022.76
2018-04-20T02:09:01.922Z,1022.72
2018-04-20T02:10:01.926Z,1022.74
2018-04-20T02:11:01.873Z,1022.72
2018-04-20T02:12:01.847Z,1022.72
2018-04-20T02:13:01.826Z,1022.75
2018-04-20T02:14:01.800Z,1022.68
2018-04-20T02:15:01.776Z,1022.66
2018-04-20T02:16:01.756Z,1022.67
2018-04-20T02:17:01.728Z,1022.63
2018-04-20T02:18:01.707Z,1022.66
2018-04-20T02:19:01.680Z,1022.59
2018-04-20T02:20:01.664Z,1022.57
2018-04-20T02:21:01.632Z,1022.54
2018-04-20T02:22:01.616Z,1022.55
2018-04-20T02:23:01.585Z,1022.54
2018-04-20T02:24:01.570Z,1022.53
2018-04-20T02:25:01.553Z,1022.50
2018-04-20T02:26:01.519Z,1022.53
2018-04-20T02:27:01.494Z,1022.52
2018-04-20T02:28:01.465Z,1022.50
2018-04-20T02:29:01.441Z,1022.50
2018-04-20T02:30:01.418Z,1022.48
2018-04-20T02:31:01.407Z,1022.50
2018-04-20T02:32:01.369Z,1022.49
2018-04-20T02:33:01.345Z,1022.50
2018-04-20T02:34:01.327Z,1022.45
2018-04-20T02:35:01.301Z,1022.48
2018-04-20T02:36:01.281Z,1022.45
2018-04-20T02:37:01.251Z,1022.45
2018-04-20T02:38:01.224Z,1022.44
2018-04-20T02:39:01.202Z,1022.43
2018-04-20T02:40:01.178Z,1022.46
2018-04-20T02:41:01.153Z,1022.44
2018-04-20T02:42:01.130Z,1022.44
2018-04-20T02:43:01.106Z,1022.43
2018-04-20T02:44:01.088Z,1022.39
2018-04-20T02:45:01.058Z,1022.43
2018-04-20T02:46:01.035Z,1022.39
2018-04-20T02:47:01.008Z,1022.40
2018-04-20T02:48:00.988Z,1022.39
2018-04-20T02:49:00.969Z,1022.35
2018-04-20T02:50:00.938Z,1022.35
2018-04-20T02:51:00.913Z,1022.31
2018-04-20T02:52:00.890Z,1022.32
2018-04-20T02:53:00.876Z,1022.34
2018-04-20T02:54:00.842Z,1022.30
2018-04-20T02:55:00.821Z,1022.31
2018-04-20T02:56:00.798Z,1022.30
2018-04-20T02:57:00.770Z,1022.24
2018-04-20T02:58:00.746Z,1022.26
2018-04-20T02:59:00.723Z,1022.19
2018-04-20T03:00:00.697Z,1022.19
2018-04-20T03:01:00.677Z,1022.19
2018-04-20T03:02:00.649Z,1022.16
2018-04-20T03:03:00.625Z,1022.18
2018-04-20T03:04:00.601Z,1022.19
2018-04-20T03:05:00.576Z,1022.12
2018-04-20T03:06:00.555Z,1022.12
2018-04-20T03:07:00.529Z,1022.14
2018-04-20T03:08:00.507Z,1022.12
2018-04-20T03:09:00.479Z,1022.11
2018-04-20T03:10:00.454Z,1022.11
2018-04-20T03:11:00.430Z,1022.06
2018-04-20T03:12:00.411Z,1022.08
2018-04-20T03:13:00.383Z,1022.05
2018-04-20T03:14:00.358Z,1022.00
2018-04-20T03:15:00.333Z,1022.05
2018-04-20T03:16:00.312Z,1022.03
2018-04-20T03:17:00.285Z,1021.99
2018-04-20T03:18:00.260Z,1021.99
2018-04-20T03:19:00.237Z,1021.98
2018-04-20T03:20:00.212Z,1021.96
2018-04-20T03:21:00.188Z,1021.92
2018-04-20T03:22:00.174Z,1021.91
2018-04-20T03:23:00.150Z,1021.92
2018-04-20T03:24:00.124Z,1021.94
2018-04-20T03:25:00.097Z,1021.90
2018-04-20T03:26:00.069Z,1021.90
2018-04-20T03:27:00.043Z,1021.89
2018-04-20T03:28:00.019Z,1021.86
2018-04-20T03:28:59.995Z,1021.93
2018-04-20T03:29:59.970Z,1021.88
2018-04-20T03:30:59.946Z,1021.94
2018-04-20T03:31:59.921Z,1021.92
2018-04-20T03:32:59.897Z,1021.87
2018-04-20T03:33:59.872Z,1021.84
2018-04-20T03:34:59.848Z,1021.84
2018-04-20T03:35:59.833Z,1021.82
2018-04-20T03:36:59.801Z,1021.85
2018-04-20T03:37:59.789Z,1021.80
2018-04-20T03:38:59.753Z,1021.82
2018-04-20T03:39:59.727Z,1021.78
2018-04-20T03:40:59.702Z,1021.75
2018-04-20T03:41:59.678Z,1021.76
2018-04-20T03:42:59.653Z,1021.74
2018-04-20T03:43:59.636Z,1021.74
2018-04-20T03:44:59.608Z,1021.71
2018-04-20T03:45:59.582Z,1021.73
2018-04-20T03:46:59.562Z,1021.73
2018-04-20T03:47:59.531Z,1021.72
2018-04-20T03:48:59.511Z,1021.71
2018-04-20T03:49:59.483Z,1021.66
2018-04-20T03:50:59.463Z,1021.71
2018-04-20T03:51:59.433Z,1021.65
2018-04-20T03:52:59.409Z,1021.69
2018-04-20T03:53:59.386Z,1021.65
2018-04-20T03:54:59.358Z,1021.64
2018-04-20T03:55:59.334Z,1021.70
2018-04-20T03:56:59.314Z,1021.72
2018-04-20T03:57:59.285Z,1021.62
2018-04-20T03:58:59.261Z,1021.68
2018-04-20T03:59:59.245Z,1021.67
2018-04-20T04:00:59.214Z,1021.64
2018-04-20T04:01:59.187Z,1021.64
2018-04-20T04:02:59.163Z,1021.62
2018-04-20T04:03:59.139Z,1021.63
2018-04-20T04:04:59.115Z,1021.59
2018-04-20T04:05:59.096Z,1021.64
2018-04-20T04:06:59.101Z,1021.59
2018-04-20T04:07:59.044Z,1021.58
2018-04-20T04:08:59.016Z,1021.56
2018-04-20T04:09:58.991Z,1021.52
2018-04-20T04:10:58.969Z,1021.56
2018-04-20T04:11:58.942Z,1021.52
2018-04-20T04:12:58.917Z,1021.51
2018-04-20T04:13:58.892Z,1021.54
2018-04-20T04:14:58.874Z,1021.57
2018-04-20T04:15:58.844Z,1021.55
2018-04-20T04:16:58.820Z,1021.53
2018-04-20T04:17:58.821Z,1021.53
2018-04-20T04:18:58.774Z,1021.51
2018-04-20T04:19:58.745Z,1021.51
2018-04-20T04:20:58.722Z,1021.50
2018-04-20T04:21:58.696Z,1021.51
2018-04-20T04:22:58.672Z,1021.48
2018-04-20T04:23:58.647Z,1021.50
2018-04-20T04:24:58.623Z,1021.50
2018-04-20T04:25:58.598Z,1021.53
2018-04-20T04:26:58.574Z,1021.55
2018-04-20T04:27:58.549Z,1021.55
2018-04-20T04:28:58.525Z,1021.49
2018-04-20T04:29:58.500Z,1021.54
2018-04-20T04:30:58.475Z,1021.55
2018-04-20T04:31:58.454Z,1021.55
2018-04-20T04:32:58.427Z,1021.52
2018-04-20T04:33:58.404Z,1021.54
2018-04-20T04:34:58.396Z,1021.51
2018-04-20T04:35:58.357Z,1021.57
2018-04-20T04:36:58.330Z,1021.57
2018-04-20T04:37:58.306Z,1021.57
2018-04-20T04:38:58.283Z,1021.59
2018-04-20T04:39:58.258Z,1021.59
2018-04-20T04:40:58.233Z,1021.60
2018-04-20T04:41:58.208Z,1021.61
2018-04-20T04:42:58.186Z,1021.60
2018-04-20T04:43:58.166Z,1021.62
2018-04-20T04:44:58.137Z,1021.66
2018-04-20T04:45:58.115Z,1021.63
2018-04-20T04:46:58.088Z,1021.60
2018-04-20T04:47:58.070Z,1021.65
2018-04-20T04:48:58.041Z,1021.67
2018-04-20T04:49:58.016Z,1021.65
2018-04-20T04:50:57.992Z,1021.69
2018-04-20T04:51:57.970Z,1021.65
2018-04-20T04:52:57.951Z,1021.67
2018-04-20T04:53:57.926Z,1021.59
2018-04-20T04:54:57.896Z,1021.49
2018-04-20T04:55:57.873Z,1021.52
2018-04-20T04:56:57.850Z,1021.55
2018-04-20T04:57:57.825Z,1021.50
2018-04-20T04:58:57.803Z,1021.44
2018-04-20T04:59:57.779Z,1021.48
2018-04-20T05:00:57.764Z,1021.45
2018-04-20T05:01:57.731Z,1021.44
2018-04-20T05:02:57.708Z,1021.47
2018-04-20T05:03:57.685Z,1021.36
2018-04-20T05:04:57.663Z,1021.46
2018-04-20T05:05:57.638Z,1021.52
2018-04-20T05:06:57.614Z,1021.64
2018-04-20T05:07:57.891Z,1021.61
2018-04-20T05:08:57.568Z,1021.61
2018-04-20T05:09:57.548Z,1021.58
2018-04-20T05:10:57.520Z,1021.53
2018-04-20T05:11:57.497Z,1021.47
2018-04-20T05:12:57.475Z,1021.41
2018-04-20T05:13:57.450Z,1021.41
2018-04-20T05:14:57.427Z,1021.48
2018-04-20T05:15:57.410Z,1021.52
2018-04-20T05:16:57.380Z,1021.54
2018-04-20T05:17:57.357Z,1021.58
2018-04-20T05:18:57.334Z,1021.58
2018-04-20T05:19:57.310Z,1021.57
2018-04-20T05:20:57.288Z,1021.51
2018-04-20T05:21:57.268Z,1021.58
2018-04-20T05:22:57.242Z,1021.57
2018-04-20T05:23:57.219Z,1021.61
2018-04-20T05:24:57.196Z,1021.57
2018-04-20T05:25:57.173Z,1021.56
2018-04-20T05:26:57.153Z,1021.55
2018-04-20T05:27:57.128Z,1021.55
2018-04-20T05:28:57.106Z,1021.62
2018-04-20T05:29:57.084Z,1021.68
2018-04-20T05:30:57.063Z,1021.63
2018-04-20T05:31:57.040Z,1021.60
2018-04-20T05:32:57.017Z,1021.61
2018-04-20T05:33:56.997Z,1021.65
2018-04-20T05:34:56.975Z,1021.68
2018-04-20T05:35:56.954Z,1021.64
2018-04-20T05:36:56.930Z,1021.65
2018-04-20T05:37:56.910Z,1021.72
2018-04-20T05:38:56.885Z,1021.72
2018-04-20T05:39:56.868Z,1021.74
2018-04-20T05:40:56.842Z,1021.80
2018-04-20T05:41:56.821Z,1021.87
2018-04-20T05:42:56.804Z,1021.85
2018-04-20T05:43:56.778Z,1021.86
2018-04-20T05:44:56.758Z,1021.78
2018-04-20T05:45:56.736Z,1021.85
2018-04-20T05:46:56.716Z,1021.77
2018-04-20T05:47:56.708Z,1021.87
2018-04-20T05:48:56.675Z,1021.88
2018-04-20T05:49:56.653Z,1021.83
2018-04-20T05:50:56.633Z,1021.94
2018-04-20T05:51:56.611Z,1021.97
2018-04-20T05:52:56.590Z,1021.95
2018-04-20T05:53:56.569Z,1021.94
2018-04-20T05:54:56.548Z,1022.19
2018-04-20T05:55:56.529Z,1022.32
2018-04-20T05:56:56.508Z,1022.15
2018-04-20T05:57:56.486Z,1021.94
2018-04-20T05:58:56.467Z,1021.93
2018-04-20T05:59:56.447Z,1021.91
2018-04-20T06:00:56.428Z,1021.92
2018-04-20T06:01:56.407Z,1021.91
2018-04-20T06:02:56.386Z,1021.91
2018-04-20T06:03:56.368Z,1021.96
2018-04-20T06:04:56.347Z,1021.97
2018-04-20T06:05:56.327Z,1022.01
2018-04-20T06:06:56.307Z,1021.92
2018-04-20T06:07:56.287Z,1021.94
2018-04-20T06:08:56.271Z,1021.99
2018-04-20T06:09:56.252Z,1022.03
2018-04-20T06:10:56.241Z,1021.97
2018-04-20T06:11:56.211Z,1022.03
2018-04-20T06:12:56.190Z,1022.03
2018-04-20T06:13:56.173Z,1022.02
2018-04-20T06:14:56.173Z,1022.01
2018-04-20T06:15:56.137Z,1022.04
2018-04-20T06:16:56.114Z,1022.02
2018-04-20T06:17:56.100Z,1021.98
2018-04-20T06:18:56.075Z,1021.99
2018-04-20T06:19:56.062Z,1021.97
2018-04-20T06:20:56.040Z,1021.96
2018-04-20T06:21:56.026Z,1021.97
2018-04-20T06:22:56.001Z,1022.00
2018-04-20T06:23:55.986Z,1022.00
2018-04-20T06:24:55.964Z,1022.01
2018-04-20T06:25:55.961Z,1022.08
2018-04-20T06:26:55.934Z,1022.07
2018-04-20T06:27:55.923Z,1022.09
2018-04-20T06:28:55.891Z,1022.08
2018-04-20T06:29:55.873Z,1022.09
2018-04-20T06:30:55.888Z,1022.15
2018-04-20T06:31:55.837Z,1022.28
2018-04-20T06:32:55.851Z,1022.32
2018-04-20T06:33:55.802Z,1022.41
2018-04-20T06:34:55.786Z,1022.45
2018-04-20T06:35:56.021Z,1022.47
2018-04-20T06:36:55.751Z,1022.48
2018-04-20T06:37:55.731Z,1022.58
2018-04-20T06:38:55.715Z,1022.72
2018-04-20T06:39:55.698Z,1022.83
2018-04-20T06:40:55.681Z,1022.82
2018-04-20T06:41:55.663Z,1022.86
2018-04-20T06:42:55.646Z,1022.98
2018-04-20T06:43:55.637Z,1023.06
2018-04-20T06:44:55.612Z,1023.13
2018-04-20T06:45:55.594Z,1023.23
2018-04-20T06:46:55.582Z,1023.36
2018-04-20T06:47:55.562Z,1023.51
2018-04-20T06:48:55.545Z,1023.33
2018-04-20T06:49:55.529Z,1023.24
2018-04-20T06:50:55.524Z,1023.24
2018-04-20T06:51:55.495Z,1023.14
2018-04-20T06:52:55.482Z,1023.20
2018-04-20T06:53:55.464Z,1023.38
2018-04-20T06:54:55.446Z,1023.44
2018-04-20T06:55:55.430Z,1023.42
2018-04-20T06:56:55.414Z,1023.20
2018-04-20T06:57:55.397Z,1023.23
2018-04-20T06:58:55.382Z,1023.41
2018-04-20T06:59:55.365Z,1023.51
2018-04-20T07:00:55.358Z,1023.33
2018-04-20T07:01:55.334Z,1023.15
2018-04-20T07:02:55.326Z,1023.06
2018-04-20T07:03:55.310Z,1023.01
2018-04-20T07:04:55.286Z,1023.14
2018-04-20T07:05:55.270Z,1023.17
2018-04-20T07:06:55.255Z,1023.15
2018-04-20T07:07:55.241Z,1023.11
2018-04-20T07:08:55.225Z,1023.06
2018-04-20T07:09:55.209Z,1022.94
2018-04-20T07:10:55.193Z,1022.98
2018-04-20T07:11:55.204Z,1023.01
2018-04-20T07:12:55.162Z,1022.96
2018-04-20T07:13:55.146Z,1022.91
2018-04-20T07:14:55.130Z,1022.89
2018-04-20T07:15:55.134Z,1022.79
2018-04-20T07:16:55.100Z,1022.81
2018-04-20T07:17:55.090Z,1022.91
2018-04-20T07:18:55.071Z,1022.82
2018-04-20T07:19:55.054Z,1022.89
2018-04-20T07:20:55.039Z,1022.86
2018-04-20T07:21:55.023Z,1022.72
2018-04-20T07:22:55.009Z,1022.66
2018-04-20T07:23:54.992Z,1022.69
2018-04-20T07:24:54.977Z,1022.74
2018-04-20T07:25:54.965Z,1022.78
2018-04-20T07:26:54.955Z,1022.69
2018-04-20T07:27:54.932Z,1022.41
2018-04-20T07:28:54.917Z,1022.75
2018-04-20T07:29:54.903Z,1022.63
2018-04-20T07:30:54.894Z,1022.54
2018-04-20T07:31:54.874Z,1022.63
2018-04-20T07:32:54.866Z,1022.54
2018-04-20T07:33:54.842Z,1022.51
2018-04-20T07:34:54.840Z,1022.41
2018-04-20T07:35:54.816Z,1022.53
2018-04-20T07:36:54.799Z,1022.41
2018-04-20T07:37:54.784Z,1022.40
2018-04-20T07:38:54.768Z,1022.49
2018-04-20T07:39:54.755Z,1022.42
2018-04-20T07:40:54.740Z,1022.45
2018-04-20T07:41:54.726Z,1022.38
2018-04-20T07:42:54.711Z,1022.33
2018-04-20T07:43:54.696Z,1022.36
2018-04-20T07:44:54.682Z,1022.41
2018-04-20T07:45:54.667Z,1022.35
2018-04-20T07:46:54.653Z,1022.26
2018-04-20T07:47:54.644Z,1022.28
2018-04-20T07:48:54.624Z,1022.24
2018-04-20T07:49:54.615Z,1022.21
2018-04-20T07:50:54.600Z,1022.25
2018-04-20T07:51:54.585Z,1022.25
2018-04-20T07:52:54.568Z,1022.32
2018-04-20T07:53:54.554Z,1022.24
2018-04-20T07:54:54.540Z,1022.33
2018-04-20T07:55:54.529Z,1022.27
2018-04-20T07:56:54.512Z,1022.20
2018-04-20T07:57:54.497Z,1022.15
2018-04-20T07:58:54.489Z,1022.18
2018-04-20T07:59:54.497Z,1022.15
2018-04-20T08:00:54.457Z,1022.15
2018-04-20T08:01:54.444Z,1022.14
2018-04-20T08:02:54.433Z,1022.19
2018-04-20T08:03:54.416Z,1022.21
2018-04-20T08:04:54.402Z,1022.22
2018-04-20T08:05:54.388Z,1022.23
2018-04-20T08:06:54.375Z,1022.16
2018-04-20T08:07:54.361Z,1022.15
2018-04-20T08:08:54.354Z,1021.98
2018-04-20T08:09:54.334Z,1022.15
2018-04-20T08:10:54.321Z,1022.14
2018-04-20T08:11:54.333Z,1022.16
2018-04-20T08:12:54.303Z,1022.20
2018-04-20T08:13:54.337Z,1022.16
2018-04-20T08:14:54.268Z,1022.14
2018-04-20T08:15:54.258Z,1022.13
2018-04-20T08:16:54.243Z,1022.08
2018-04-20T08:17:54.232Z,1022.08
2018-04-20T08:18:54.227Z,1022.04
2018-04-20T08:19:54.205Z,1022.09
2018-04-20T08:20:54.198Z,1022.09
2018-04-20T08:21:54.179Z,1022.07
2018-04-20T08:22:54.172Z,1022.07
2018-04-20T08:23:54.162Z,1022.12
2018-04-20T08:24:54.143Z,1022.06
2018-04-20T08:25:54.129Z,1022.03
2018-04-20T08:26:54.121Z,1022.02
2018-04-20T08:27:54.112Z,1022.10
2018-04-20T08:28:54.099Z,1022.08
2018-04-20T08:29:54.085Z,1022.05
2018-04-20T08:30:54.070Z,1022.07
2018-04-20T08:31:54.070Z,1022.05
2018-04-20T08:32:54.051Z,1022.06
2018-04-20T08:33:54.040Z,1022.05
2018-04-20T08:34:54.023Z,1022.07
2018-04-20T08:35:54.019Z,1022.08
2018-04-20T08:36:54.001Z,1022.10
2018-04-20T08:37:53.988Z,1022.09
2018-04-20T08:38:53.976Z,1022.13
2018-04-20T08:39:53.966Z,1022.12
2018-04-20T08:40:53.955Z,1022.11
2018-04-20T08:41:53.944Z,1022.10
2018-04-20T08:42:53.933Z,1022.02
2018-04-20T08:43:53.920Z,1022.08
2018-04-20T08:44:53.910Z,1022.14
2018-04-20T08:45:53.903Z,1022.10
2018-04-20T08:46:53.887Z,1022.10
2018-04-20T08:47:53.877Z,1022.16
2018-04-20T08:48:53.866Z,1022.11
2018-04-20T08:49:53.855Z,1022.15
2018-04-20T08:50:53.852Z,1022.20
2018-04-20T08:51:53.834Z,1022.19
2018-04-20T08:52:53.827Z,1022.16
2018-04-20T08:53:53.815Z,1022.21
2018-04-20T08:54:53.802Z,1022.23
2018-04-20T08:55:53.793Z,1022.19
2018-04-20T08:56:53.782Z,1022.15
2018-04-20T08:57:53.783Z,1022.13
2018-04-20T08:58:53.768Z,1022.06
2018-04-20T08:59:53.757Z,1022.08
2018-04-20T09:00:53.742Z,1021.99
2018-04-20T09:01:53.740Z,1021.96
2018-04-20T09:02:53.722Z,1021.91
2018-04-20T09:03:53.715Z,1021.88
2018-04-20T09:04:53.704Z,1021.87
2018-04-20T09:05:53.692Z,1021.79
2018-04-20T09:06:53.684Z,1021.74
2018-04-20T09:07:53.677Z,1021.70
2018-04-20T09:08:53.663Z,1021.67
2018-04-20T09:09:53.656Z,1021.65
2018-04-20T09:10:53.645Z,1021.59
2018-04-20T09:11:53.634Z,1021.58
2018-04-20T09:12:53.626Z,1021.37
2018-04-20T09:13:53.617Z,1021.12
2018-04-20T09:14:53.625Z,1020.90
2018-04-20T09:15:53.598Z,1020.82
2018-04-20T09:16:53.587Z,1020.74
2018-04-20T09:17:53.577Z,1020.74
2018-04-20T09:18:53.568Z,1020.65
2018-04-20T09:19:53.560Z,1020.63
2018-04-20T09:20:53.551Z,1020.52
2018-04-20T09:21:53.541Z,1020.51
2018-04-20T09:22:53.533Z,1020.47
2018-04-20T09:23:53.524Z,1020.41
2018-04-20T09:24:53.515Z,1020.43
2018-04-20T09:25:53.509Z,1020.40
2018-04-20T09:26:53.496Z,1020.38
2018-04-20T09:27:53.488Z,1020.39
2018-04-20T09:28:53.489Z,1020.41
2018-04-20T09:29:53.473Z,1020.34
2018-04-20T09:30:53.463Z,1020.29
2018-04-20T09:31:53.467Z,1020.34
2018-04-20T09:32:53.447Z,1020.33
2018-04-20T09:33:53.435Z,1020.33
2018-04-20T09:34:53.425Z,1020.35
2018-04-20T09:35:53.418Z,1020.40
2018-04-20T09:36:53.410Z,1020.31
2018-04-20T09:37:53.400Z,1020.32
2018-04-20T09:38:53.396Z,1020.34
2018-04-20T09:39:53.384Z,1020.30
2018-04-20T09:40:53.376Z,1020.27
2018-04-20T09:41:53.367Z,1020.26
2018-04-20T09:42:53.359Z,1020.24
2018-04-20T09:43:53.355Z,1020.21
2018-04-20T09:44:53.347Z,1020.23
2018-04-20T09:45:53.338Z,1020.20
2018-04-20T09:46:53.328Z,1020.23
2018-04-20T09:47:53.320Z,1020.21
2018-04-20T09:48:53.316Z,1020.15
2018-04-20T09:49:53.308Z,1020.15
2018-04-20T09:50:53.299Z,1020.12
2018-04-20T09:51:53.293Z,1020.13
2018-04-20T09:52:53.283Z,1020.12
2018-04-20T09:53:53.275Z,1020.18
2018-04-20T09:54:53.269Z,1020.07
2018-04-20T09:55:53.269Z,1020.06
2018-04-20T09:56:53.259Z,1020.04
2018-04-20T09:57:53.253Z,1020.00
2018-04-20T09:58:53.243Z,1019.98
2018-04-20T09:59:53.234Z,1019.93
2018-04-20T10:00:53.226Z,1019.96
2018-04-20T10:01:53.223Z,1019.96
2018-04-20T10:02:53.232Z,1019.96
2018-04-20T10:03:53.207Z,1019.96
2018-04-20T10:04:53.202Z,1019.96
2018-04-20T10:05:53.227Z,1019.95
2018-04-20T10:06:53.258Z,1019.93
2018-04-20T10:07:53.256Z,1019.91
2018-04-20T10:08:53.173Z,1019.93
2018-04-20T10:09:53.170Z,1019.93
2018-04-20T10:10:53.206Z,1019.94
2018-04-20T10:11:53.149Z,1019.89
2018-04-20T10:12:53.180Z,1019.89
2018-04-20T10:13:53.139Z,1019.88
2018-04-20T10:14:53.166Z,1019.91
2018-04-20T10:15:53.122Z,1019.87
2018-04-20T10:16:53.116Z,1019.83
2018-04-20T10:17:53.125Z,1019.82
2018-04-20T10:18:53.118Z,1019.78
2018-04-20T10:19:53.099Z,1019.84
2018-04-20T10:20:53.091Z,1019.79
2018-04-20T10:21:53.083Z,1019.79
2018-04-20T10:22:53.105Z,1019.79
2018-04-20T10:23:53.105Z,1019.79
2018-04-20T10:24:53.083Z,1019.80
2018-04-20T10:25:53.056Z,1019.76
2018-04-20T10:26:53.050Z,1019.76
2018-04-20T10:27:53.046Z,1019.79
2018-04-20T10:28:53.042Z,1019.81
2018-04-20T10:29:53.047Z,1019.81
2018-04-20T10:30:53.042Z,1019.80
2018-04-20T10:31:53.018Z,1019.78
2018-04-20T10:32:53.022Z,1019.70
2018-04-20T10:33:53.007Z,1019.72
2018-04-20T10:34:53.001Z,1019.66
2018-04-20T10:35:52.991Z,1019.60
2018-04-20T10:36:52.994Z,1019.59
2018-04-20T10:37:53.008Z,1019.67
2018-04-20T10:38:53.013Z,1019.59
2018-04-20T10:39:52.998Z,1019.40
2018-04-20T10:40:52.955Z,1019.56
2018-04-20T10:41:52.980Z,1019.58
2018-04-20T10:42:52.940Z,1019.54
2018-04-20T10:43:52.931Z,1019.47
2018-04-20T10:44:52.928Z,1019.53
2018-04-20T10:45:52.915Z,1019.49
2018-04-20T10:46:52.907Z,1019.34
2018-04-20T10:47:52.915Z,1019.44
2018-04-20T10:48:52.891Z,1019.54
2018-04-20T10:49:52.889Z,1019.61
2018-04-20T10:50:52.884Z,1019.52
2018-04-20T10:51:52.867Z,1019.59
2018-04-20T10:52:52.861Z,1019.61
2018-04-20T10:53:52.854Z,1019.59
2018-04-20T10:54:52.841Z,1019.51
2018-04-20T10:55:52.833Z,1019.57
2018-04-20T10:56:52.825Z,1019.64
2018-04-20T10:57:52.815Z,1019.62
2018-04-20T10:58:52.819Z,1019.57
2018-04-20T10:59:52.798Z,1019.71
2018-04-20T11:00:52.790Z,1019.64
2018-04-20T11:01:52.783Z,1019.58
2018-04-20T11:02:52.812Z,1019.84
2018-04-20T11:03:52.768Z,1019.78
2018-04-20T11:04:52.755Z,1019.82
2018-04-20T11:05:52.755Z,1019.90
2018-04-20T11:06:52.745Z,1019.88
2018-04-20T11:07:52.728Z,1019.84
2018-04-20T11:08:52.721Z,1019.71
2018-04-20T11:09:52.721Z,1019.92
2018-04-20T11:10:52.704Z,1019.73
2018-04-20T11:11:52.693Z,1019.89
2018-04-20T11:12:52.685Z,1019.98
2018-04-20T11:13:52.674Z,1020.03
2018-04-20T11:14:52.665Z,1020.04
2018-04-20T11:15:52.660Z,1020.03
2018-04-20T11:16:52.648Z,1020.20
2018-04-20T11:17:52.637Z,1020.12
2018-04-20T11:18:52.631Z,1019.97
2018-04-20T11:19:52.619Z,1019.76
2018-04-20T11:20:52.631Z,1020.12
2018-04-20T11:21:52.599Z,1020.19
2018-04-20T11:22:52.591Z,1020.00
2018-04-20T11:23:52.579Z,1020.15
2018-04-20T11:24:52.570Z,1020.27
2018-04-20T11:25:52.560Z,1020.30
2018-04-20T11:26:52.561Z,1020.24
2018-04-20T11:27:52.542Z,1020.38
2018-04-20T11:28:52.531Z,1020.22
2018-04-20T11:29:52.521Z,1019.99
2018-04-20T11:30:52.513Z,1019.88
2018-04-20T11:31:52.502Z,1020.04
2018-04-20T11:32:52.491Z,1020.12
2018-04-20T11:33:52.501Z,1019.99
2018-04-20T11:34:52.477Z,1019.93
2018-04-20T11:35:52.461Z,1020.23
2018-04-20T11:36:52.461Z,1020.25
2018-04-20T11:37:52.464Z,1019.95
2018-04-20T11:38:52.431Z,1020.02
2018-04-20T11:39:52.426Z,1019.94
2018-04-20T11:40:52.414Z,1019.77
2018-04-20T11:41:52.401Z,1019.86
2018-04-20T11:42:52.391Z,1019.94
2018-04-20T11:43:52.380Z,1019.81
2018-04-20T11:44:52.396Z,1019.70
2018-04-20T11:45:52.359Z,1019.69
2018-04-20T11:46:52.362Z,1019.60
2018-04-20T11:47:52.340Z,1019.49
2018-04-20T11:48:52.330Z,1019.60
2018-04-20T11:49:52.320Z,1019.62
2018-04-20T11:50:52.310Z,1019.65
2018-04-20T11:51:52.301Z,1019.55
2018-04-20T11:52:52.291Z,1019.58
2018-04-20T11:53:52.353Z,1019.66
2018-04-20T11:54:52.274Z,1019.45
2018-04-20T11:55:52.262Z,1019.63
2018-04-20T11:56:52.255Z,1019.63
2018-04-20T11:57:52.242Z,1019.55
2018-04-20T11:58:52.241Z,1019.62
2018-04-20T11:59:52.223Z,1019.72
2018-04-20T12:00:52.214Z,1019.49
2018-04-20T12:01:52.202Z,1019.63
2018-04-20T12:02:52.194Z,1019.41
2018-04-20T12:03:52.183Z,1019.36
2018-04-20T12:04:52.186Z,1019.29